Terminal Aerodrome Forecast
Issued by NWS Albuquerque, NM

Home | Current Version | Previous Version | Text Only | Print | Product List | Glossary On
Versions: 1 2 3 4 5 6 7 8 9 10 11 12 13 14 15 16 17 18 19 20
646
FTUS45 KABQ 201352 AAB
TAFABQ
TAF AMD
KABQ 201352Z 2014/2112 25012KT P6SM VCSH FEW035 BKN060
     FM201700 25014G22KT P6SM FEW040 BKN060
     FM202100 26018G28KT P6SM VCSH SCT025 BKN040
     FM210200 15010KT P6SM VCSH BKN035=

USA.gov is the U.S. government's official web portal to all federal, state and local government web resources and services.